»·PEaware :: N256Z L70-KRNO

N256Z :: L70-KRNO

FLIGHT INFORMATION

Flight Status: Arrived
Operator: Privately registered:
United States
More flights under this callsign
Pilot: Gregory A. (9731)
Aircraft: PIPER PA-46-310/350P MALIBU MIRAGE
(PA46)
More flights by this aircraft type
Origin: L70 Agua Dulce
United States
Destination: KRNO Reno/Tahoe Intl
United States
More flights between these airports :: More routes between these airports
Route: + PMD LANDO J5 FMG
File this flight plan on PilotEdge
Remarks:
Altitude:
(Current/Filed)
260ft
Speed:
(Current/Filed)
260kts
Departed: 08-Jul-18 02:57 PM
Arrived: 08-Jul-18 04:26 PM
Distance/Time
Traveled:
308nm/1:29
Distance/Time
To Go:
Arrived

Flight Plot

Page will automatically refresh every two minutes.

Flight plan parsing failed; only flown route is shown


Map Options




Map Legend


Flown Route
Filed Route
Departure Airport
Arrival Airport
Navaid (VOR, NDB)
Fix

Horizontal Profiles

Position Reports

Time Latitude Longitude Heading Altitude Ground
Speed
08-Jul-18 14:43 34.503503 -118.314283 143 2606ft 0kts
08-Jul-18 14:44 34.503503 -118.314283 143 2606ft 0kts
08-Jul-18 14:45 34.503503 -118.314283 143 2606ft 0kts
08-Jul-18 14:46 34.503503 -118.314283 143 2606ft 0kts
08-Jul-18 14:47 34.503502 -118.314282 143 2606ft 0kts
08-Jul-18 14:48 34.503500 -118.314281 143 2606ft 0kts
08-Jul-18 14:49 34.503499 -118.314280 143 2606ft 0kts
08-Jul-18 14:50 34.503497 -118.314278 143 2606ft 0kts
08-Jul-18 14:51 34.503496 -118.314277 143 2606ft 0kts
08-Jul-18 14:52 34.503491 -118.314273 143 2606ft 0kts
08-Jul-18 14:53 34.506497 -118.309161 53 2606ft 24kts
08-Jul-18 14:54 34.507755 -118.307089 88 2606ft 0kts
08-Jul-18 14:55 34.507755 -118.307089 88 2606ft 0kts
08-Jul-18 14:56 34.507755 -118.307089 88 2606ft 0kts
08-Jul-18 14:57 34.507520 -118.306787 193 2606ft 5kts
08-Jul-18 14:57 34.498852 -118.320591 229 2871ft 109kts
08-Jul-18 14:58 34.487142 -118.301393 48 4981ft 137kts
08-Jul-18 14:59 34.508092 -118.275184 44 6817ft 155kts
08-Jul-18 15:00 34.541398 -118.235696 51 9247ft 179kts
08-Jul-18 15:01 34.579728 -118.199629 1 11267ft 182kts
08-Jul-18 15:02 34.629262 -118.201104 353 13250ft 176kts
08-Jul-18 15:03 34.676948 -118.221741 326 15284ft 194kts
08-Jul-18 15:04 34.726878 -118.256539 324 17305ft 215kts
08-Jul-18 15:05 34.775729 -118.299905 315 19318ft 222kts
08-Jul-18 15:07 34.824024 -118.347004 315 21318ft 222kts
08-Jul-18 15:08 34.865331 -118.400146 301 23077ft 223kts
08-Jul-18 15:09 34.907370 -118.463259 303 23165ft 237kts
08-Jul-18 15:10 34.949602 -118.524823 303 23170ft 237kts
08-Jul-18 15:11 34.991989 -118.586664 303 23173ft 239kts
08-Jul-18 15:12 35.040569 -118.643886 312 23170ft 244kts
08-Jul-18 15:13 35.092582 -118.697551 313 23167ft 245kts
08-Jul-18 15:14 35.145086 -118.751017 313 23161ft 245kts
08-Jul-18 15:15 35.192248 -118.799017 313 23149ft 245kts
08-Jul-18 15:16 35.244137 -118.851792 313 23421ft 238kts
08-Jul-18 15:17 35.289926 -118.898458 312 24388ft 228kts
08-Jul-18 15:18 35.337656 -118.947203 311 25915ft 222kts
08-Jul-18 15:19 35.382263 -118.993084 312 26119ft 249kts
08-Jul-18 15:20 35.385861 -118.996770 312 26119ft 250kts
08-Jul-18 15:21 35.440176 -119.052173 313 26112ft 252kts
08-Jul-18 15:22 35.501168 -119.094581 340 26116ft 264kts
08-Jul-18 15:23 35.574555 -119.108613 345 26117ft 268kts
08-Jul-18 15:24 35.648822 -119.119259 346 26121ft 269kts
08-Jul-18 15:25 35.723602 -119.129365 346 26122ft 270kts
08-Jul-18 15:26 35.798205 -119.139305 346 26123ft 270kts
08-Jul-18 15:27 35.873114 -119.149258 346 26126ft 270kts
08-Jul-18 15:28 35.947365 -119.159083 346 26348ft 262kts
08-Jul-18 15:29 36.018593 -119.168491 345 27327ft 254kts
08-Jul-18 15:30 36.088940 -119.177925 345 28107ft 259kts
08-Jul-18 15:31 36.163087 -119.187998 345 28133ft 274kts
08-Jul-18 15:32 36.239175 -119.198129 345 28132ft 274kts
08-Jul-18 15:33 36.314881 -119.208239 345 28133ft 273kts
08-Jul-18 15:34 36.390504 -119.218385 345 28135ft 273kts
08-Jul-18 15:35 36.466299 -119.228606 345 28136ft 273kts
08-Jul-18 15:36 36.541776 -119.238768 345 28139ft 273kts
08-Jul-18 15:37 36.617474 -119.249022 345 28142ft 273kts
08-Jul-18 15:38 36.692955 -119.259208 345 28145ft 273kts
08-Jul-18 15:39 36.768371 -119.269421 345 28148ft 273kts
08-Jul-18 15:40 36.844012 -119.279690 345 28156ft 272kts
08-Jul-18 15:41 36.919308 -119.289938 345 28159ft 272kts
08-Jul-18 15:42 36.994804 -119.300236 345 28163ft 272kts
08-Jul-18 15:43 37.070067 -119.310522 345 28171ft 272kts
08-Jul-18 15:44 37.145173 -119.320836 345 28180ft 271kts
08-Jul-18 15:45 37.220479 -119.331149 345 28190ft 271kts
08-Jul-18 15:46 37.295419 -119.341438 345 28200ft 271kts
08-Jul-18 15:47 37.370293 -119.351750 345 28212ft 271kts
08-Jul-18 15:48 37.445405 -119.362119 345 28223ft 271kts
08-Jul-18 15:49 37.520272 -119.372480 346 28228ft 271kts
08-Jul-18 15:50 37.595140 -119.382852 345 28231ft 270kts
08-Jul-18 15:51 37.670197 -119.393306 345 28234ft 270kts
08-Jul-18 15:52 37.744985 -119.403700 345 28232ft 270kts
08-Jul-18 15:53 37.819776 -119.414115 345 28228ft 270kts
08-Jul-18 15:54 37.894815 -119.424624 346 28223ft 271kts
08-Jul-18 15:55 37.969672 -119.435099 346 28218ft 271kts
08-Jul-18 15:56 38.044639 -119.445587 346 28215ft 269kts
08-Jul-18 15:57 38.119017 -119.456021 346 28218ft 269kts
08-Jul-18 15:58 38.193347 -119.466526 346 28215ft 269kts
08-Jul-18 15:59 38.267923 -119.477069 346 28212ft 269kts
08-Jul-18 16:00 38.342310 -119.487560 346 28143ft 271kts
08-Jul-18 16:01 38.416855 -119.498114 346 27503ft 265kts
08-Jul-18 16:02 38.489910 -119.508382 346 26835ft 262kts
08-Jul-18 16:03 38.562362 -119.518666 346 26172ft 262kts
08-Jul-18 16:04 38.634389 -119.528873 346 25506ft 256kts
08-Jul-18 16:05 38.704496 -119.538821 347 24837ft 251kts
08-Jul-18 16:06 38.773750 -119.548665 347 24254ft 248kts
08-Jul-18 16:07 38.835546 -119.557474 347 23792ft 248kts
08-Jul-18 16:08 38.904072 -119.567284 347 23128ft 244kts
08-Jul-18 16:09 38.970600 -119.576743 347 22462ft 238kts
08-Jul-18 16:10 39.035943 -119.586078 347 21792ft 231kts
08-Jul-18 16:11 39.098967 -119.595076 346 20676ft 228kts
08-Jul-18 16:12 39.162012 -119.604187 346 19480ft 228kts
08-Jul-18 16:13 39.225131 -119.613249 347 18275ft 223kts
08-Jul-18 16:14 39.285505 -119.621792 348 17074ft 216kts
08-Jul-18 16:15 39.332536 -119.573415 51 15886ft 231kts
08-Jul-18 16:16 39.368638 -119.505912 52 14689ft 226kts
08-Jul-18 16:17 39.404179 -119.439466 52 13491ft 223kts
08-Jul-18 16:18 39.439662 -119.373595 52 12288ft 221kts
08-Jul-18 16:19 39.485049 -119.346954 311 11106ft 191kts
08-Jul-18 16:20 39.489654 -119.412391 265 10074ft 184kts
08-Jul-18 16:21 39.486159 -119.478790 265 9245ft 185kts
08-Jul-18 16:22 39.483002 -119.543339 265 8210ft 175kts
08-Jul-18 16:23 39.486171 -119.601965 276 7320ft 155kts
08-Jul-18 16:24 39.493000 -119.653398 279 6510ft 143kts
08-Jul-18 16:25 39.498150 -119.706887 265 5487ft 157kts
08-Jul-18 16:26 39.496280 -119.756719 269 4486ft 111kts
08-Jul-18 16:27 39.497410 -119.770688 5 4419ft 11kts

Navigation Log

Ident Type
Flight plan parsing failed, navigation log unavailable